Time;durP1;ratioP1;P1;durP2;ratioP2;P2;SDS_P1;SDS_P2;PMS_P1;PMS_P2;Temp;Humidity;BMP_temperature;BMP_pressure;BME280_temperature;BME280_humidity;BME280_pressure;Samples;Min_cycle;Max_cycle;Signal;HPM_P1;HPM_P2
2023/10/06 00:01:44;;;;;;;11.23;8.03;;;;;;;12.42;63.59;97291.16;5022976;28;20273;-70
2023/10/06 00:04:12;;;;;;;17.13;7.70;;;;;;;12.30;63.53;97295.09;5017853;28;20415;-70
2023/10/06 00:06:42;;;;;;;11.20;7.37;;;;;;;12.30;63.34;97292.47;5013911;28;20850;-70
2023/10/06 00:09:28;;;;;;;14.53;7.17;;;;;;;12.36;62.83;97288.75;5007830;28;20501;-69
2023/10/06 00:11:54;;;;;;;9.97;6.90;;;;;;;12.33;62.81;97295.00;5007461;28;20418;-71
2023/10/06 00:14:38;;;;;;;15.23;7.43;;;;;;;12.33;62.72;97292.38;5006960;28;20482;-69
2023/10/06 00:17:17;;;;;;;10.80;6.70;;;;;;;12.14;63.79;97296.56;5007100;28;20184;-69
2023/10/06 00:19:50;;;;;;;14.97;7.60;;;;;;;12.08;63.87;97298.50;5007071;28;20517;-70
2023/10/06 00:24:41;;;;;;;11.47;7.03;;;;;;;11.98;64.13;97302.38;5007017;28;20881;-69
2023/10/06 00:27:11;;;;;;;14.20;7.33;;;;;;;12.01;64.04;97290.88;5006995;28;20364;-69
2023/10/06 00:29:47;;;;;;;9.73;6.73;;;;;;;12.02;63.24;97292.59;5006659;28;20945;-69
2023/10/06 00:32:21;;;;;;;10.30;6.83;;;;;;;11.96;63.99;97296.31;5007046;28;20417;-69
2023/10/06 00:34:52;;;;;;;16.60;8.40;;;;;;;12.07;64.07;97302.06;5007069;28;20496;-70
2023/10/06 00:37:24;;;;;;;22.17;6.90;;;;;;;11.97;64.19;97298.00;5007050;28;20503;-70
2023/10/06 00:39:54;;;;;;;13.60;8.40;;;;;;;12.08;63.38;97295.00;5006596;28;20463;-70
2023/10/06 00:42:20;;;;;;;10.50;6.57;;;;;;;11.89;64.05;97292.16;5006907;28;20439;-70
2023/10/06 00:44:47;;;;;;;19.03;7.33;;;;;;;12.03;63.97;97300.44;5006896;28;20411;-69
2023/10/06 00:47:13;;;;;;;13.93;6.83;;;;;;;12.01;63.30;97286.47;5006904;28;20483;-68
2023/10/06 00:49:43;;;;;;;10.10;6.53;;;;;;;12.13;63.67;97284.31;5006670;28;20430;-69
2023/10/06 00:52:11;;;;;;;11.70;8.20;;;;;;;12.25;62.35;97286.50;5007030;28;20420;-69
2023/10/06 00:54:43;;;;;;;9.93;6.93;;;;;;;12.07;63.27;97283.63;5010902;28;20419;-70
2023/10/06 00:57:12;;;;;;;12.80;6.80;;;;;;;11.97;63.87;97278.75;5011600;28;21600;-69
2023/10/06 00:59:38;;;;;;;15.30;7.17;;;;;;;11.93;64.57;97277.13;5010012;28;20774;-69
2023/10/06 01:02:08;;;;;;;11.13;7.10;;;;;;;11.85;64.45;97280.84;5010983;28;20472;-69
2023/10/06 01:04:45;;;;;;;13.30;7.83;;;;;;;11.85;64.05;97280.00;5010470;28;20609;-69
2023/10/06 01:07:16;;;;;;;13.20;6.80;;;;;;;11.76;64.69;97275.91;5010395;28;20541;-69
2023/10/06 01:10:16;;;;;;;12.27;7.50;;;;;;;11.83;64.60;97279.19;5009756;28;21547;-69
2023/10/06 01:12:43;;;;;;;11.00;7.17;;;;;;;11.65;64.44;97289.44;5010083;28;20526;-69
2023/10/06 01:15:16;;;;;;;11.10;7.57;;;;;;;11.60;64.36;97278.22;5009870;28;20449;-69
2023/10/06 01:17:43;;;;;;;10.93;7.23;;;;;;;11.43;64.58;97283.16;5010137;28;20465;-70
2023/10/06 01:20:10;;;;;;;18.47;7.77;;;;;;;11.38;65.09;97279.84;5009607;28;20455;-70
2023/10/06 01:22:41;;;;;;;12.60;7.37;;;;;;;11.39;65.12;97273.69;5009860;28;20414;-68
2023/10/06 01:25:19;;;;;;;12.30;7.20;;;;;;;11.45;64.65;97282.19;5009856;28;20411;-70
2023/10/06 01:27:44;;;;;;;11.60;6.70;;;;;;;11.55;63.83;97271.38;5009759;28;20418;-69
2023/10/06 01:30:17;;;;;;;15.13;8.60;;;;;;;11.57;64.02;97277.44;4991502;28;20438;-69
2023/10/06 01:32:50;;;;;;;11.27;7.50;;;;;;;11.61;64.70;97271.19;5009828;28;20176;-69
2023/10/06 01:35:18;;;;;;;16.80;7.10;;;;;;;11.47;64.73;97266.41;5009993;28;20767;-70
2023/10/06 01:37:44;;;;;;;16.13;7.80;;;;;;;11.53;64.31;97271.47;5009610;28;20514;-68
2023/10/06 01:42:55;;;;;;;10.70;6.83;;;;;;;11.46;64.83;97264.69;5009600;28;20419;-69
2023/10/06 01:45:23;;;;;;;14.77;7.33;;;;;;;11.52;64.50;97263.63;5009632;28;20402;-69
2023/10/06 01:47:57;;;;;;;27.93;8.53;;;;;;;11.55;64.37;97267.00;5009533;28;20466;-70
2023/10/06 01:50:29;;;;;;;12.80;7.87;;;;;;;11.48;64.30;97267.25;5009176;28;20455;-69
2023/10/06 01:52:58;;;;;;;13.47;7.30;;;;;;;11.47;64.29;97265.53;5009565;28;20415;-70
2023/10/06 01:55:24;;;;;;;11.83;8.83;;;;;;;11.46;64.99;97262.06;5009483;28;20415;-70
2023/10/06 01:57:51;;;;;;;13.90;8.57;;;;;;;11.30;64.67;97266.97;5009461;28;21048;-70
2023/10/06 02:00:26;;;;;;;12.57;8.67;;;;;;;11.23;65.45;97260.19;5009006;28;20288;-69
2023/10/06 02:02:51;;;;;;;13.10;8.43;;;;;;;11.13;65.05;97261.41;5009412;28;20421;-69
2023/10/06 02:05:16;;;;;;;11.80;7.90;;;;;;;11.26;64.57;97262.72;5009267;28;20407;-70
2023/10/06 02:07:44;;;;;;;12.20;8.17;;;;;;;10.68;66.79;97260.16;5009339;28;20172;-68
2023/10/06 02:10:12;;;;;;;10.17;8.00;;;;;;;10.48;67.35;97265.16;5008809;28;20203;-70
2023/10/06 02:12:38;;;;;;;7.63;6.63;;;;;;;10.86;65.79;97250.84;5009191;28;20910;-69
2023/10/06 02:15:10;;;;;;;12.40;7.40;;;;;;;11.11;65.38;97256.19;5009136;28;20439;-70
2023/10/06 02:17:36;;;;;;;12.00;7.70;;;;;;;11.19;64.43;97250.69;5009126;28;20411;-70
2023/10/06 02:20:02;;;;;;;19.73;8.20;;;;;;;11.27;64.42;97242.53;5008615;28;20779;-69
2023/10/06 02:22:27;;;;;;;11.53;7.53;;;;;;;11.37;64.04;97244.81;5008729;28;20549;-69
2023/10/06 02:24:53;;;;;;;16.43;8.20;;;;;;;11.25;63.86;97247.88;5008836;28;20160;-70
2023/10/06 02:27:19;;;;;;;12.10;7.40;;;;;;;11.18;64.01;97252.44;5009006;28;20202;-70
2023/10/06 02:29:45;;;;;;;15.60;8.10;;;;;;;11.14;64.57;97244.72;5008413;28;20192;-69
2023/10/06 02:32:10;;;;;;;18.93;7.43;;;;;;;11.15;64.09;97239.44;5008593;28;20498;-69
2023/10/06 02:34:36;;;;;;;13.63;8.40;;;;;;;11.06;64.70;97249.38;5008471;28;20173;-70
2023/10/06 02:37:04;;;;;;;14.93;8.40;;;;;;;11.22;63.85;97247.97;5008572;28;20165;-70
2023/10/06 02:39:34;;;;;;;13.37;7.57;;;;;;;11.22;63.97;97234.84;5008026;28;20275;-71
2023/10/06 02:42:02;;;;;;;18.53;8.87;;;;;;;11.13;63.63;97238.63;5008544;28;20987;-69
2023/10/06 02:44:29;;;;;;;14.90;8.33;;;;;;;11.02;64.33;97240.72;5009158;28;20885;-70
2023/10/06 02:46:55;;;;;;;12.57;8.20;;;;;;;11.01;64.79;97239.88;5008311;28;20461;-70
2023/10/06 02:49:48;;;;;;;12.93;8.50;;;;;;;11.05;64.33;97240.63;5008042;28;20415;-70
2023/10/06 02:52:22;;;;;;;12.53;8.30;;;;;;;10.96;64.45;97241.78;5007949;28;20493;-69
2023/10/06 02:57:34;;;;;;;17.70;9.10;;;;;;;10.65;65.30;97241.88;5008616;28;20901;-70
2023/10/06 03:00:28;;;;;;;13.40;9.03;;;;;;;10.72;65.05;97238.16;5007733;28;20427;-70
2023/10/06 03:02:45;;;;;;;17.87;7.43;;;;;;;10.79;64.25;97234.44;5008049;28;20427;-68
2023/10/06 03:05:31;;;;;;;10.60;8.13;;;;;;;10.70;64.58;97233.84;5008172;28;20446;-68
2023/10/06 03:07:58;;;;;;;13.77;9.50;;;;;;;10.67;64.96;97229.56;5008025;28;20184;-69
2023/10/06 03:10:27;;;;;;;14.40;8.60;;;;;;;10.52;65.23;97235.28;5007578;28;20946;-68
2023/10/06 03:12:53;;;;;;;14.13;8.90;;;;;;;10.50;65.37;97231.84;5007790;28;20450;-69
2023/10/06 03:15:28;;;;;;;14.43;9.50;;;;;;;10.63;65.01;97232.31;5007354;28;20450;-69
2023/10/06 03:17:58;;;;;;;10.70;8.10;;;;;;;10.45;65.45;97229.38;5007636;28;20541;-69
2023/10/06 03:20:27;;;;;;;11.70;8.90;;;;;;;10.38;65.61;97233.94;5007410;28;20553;-68
2023/10/06 03:22:55;;;;;;;11.43;8.83;;;;;;;10.46;65.57;97238.09;5007899;28;20419;-70
2023/10/06 03:25:21;;;;;;;18.10;9.70;;;;;;;10.44;65.73;97237.28;5008128;28;20887;-69
2023/10/06 03:27:52;;;;;;;13.37;9.80;;;;;;;10.37;66.07;97242.72;5008001;28;20450;-70
2023/10/06 03:30:26;;;;;;;20.97;9.80;;;;;;;10.31;66.62;97253.38;5007414;28;20423;-69
2023/10/06 03:32:53;;;;;;;12.07;8.80;;;;;;;10.33;66.19;97241.09;5008600;28;20433;-69
2023/10/06 03:37:53;;;;;;;14.17;9.37;;;;;;;10.29;67.37;97239.44;5007739;28;20505;-70
2023/10/06 03:40:25;;;;;;;16.27;10.00;;;;;;;10.22;67.90;97243.13;5007530;28;20520;-69
2023/10/06 03:42:52;;;;;;;11.77;9.57;;;;;;;10.20;67.14;97246.69;5007639;28;20601;-68
2023/10/06 03:45:20;;;;;;;18.67;9.00;;;;;;;10.26;67.54;97252.63;5007942;28;21164;-70
2023/10/06 03:47:48;;;;;;;11.63;9.60;;;;;;;10.35;67.16;97247.16;5007543;28;20418;-69
2023/10/06 03:50:15;;;;;;;71.57;17.43;;;;;;;10.19;67.72;97243.22;5006855;28;20803;-68
2023/10/06 03:52:40;;;;;;;13.27;9.40;;;;;;;10.12;67.94;97242.53;5007227;28;20458;-68
2023/10/06 03:55:06;;;;;;;11.23;8.10;;;;;;;10.16;68.09;97240.69;5007205;28;20910;-70
2023/10/06 03:57:32;;;;;;;10.73;8.33;;;;;;;10.13;68.01;97243.38;5007429;28;20263;-70
2023/10/06 03:59:58;;;;;;;13.17;8.30;;;;;;;10.22;67.99;97242.28;5007025;28;20192;-69
2023/10/06 04:02:38;;;;;;;14.60;9.27;;;;;;;10.23;67.35;97238.72;5007233;28;20172;-68
2023/10/06 04:05:05;;;;;;;12.23;8.97;;;;;;;10.18;67.79;97239.75;5007453;28;20545;-69
2023/10/06 04:07:31;;;;;;;12.87;9.43;;;;;;;10.09;67.35;97247.03;5007228;28;20450;-67
2023/10/06 04:09:56;;;;;;;10.60;8.33;;;;;;;10.19;67.18;97245.84;5006833;28;20560;-69
2023/10/06 04:12:21;;;;;;;13.43;9.37;;;;;;;10.06;67.68;97239.22;5007146;28;20172;-71
2023/10/06 04:14:47;;;;;;;21.97;9.47;;;;;;;9.99;67.79;97242.91;5007266;28;20671;-68
2023/10/06 04:17:14;;;;;;;10.03;8.13;;;;;;;9.60;68.53;97243.97;5007103;28;20200;-71
2023/10/06 04:19:40;;;;;;;11.80;8.43;;;;;;;10.01;67.40;97248.97;5006897;28;20225;-70
2023/10/06 04:22:07;;;;;;;14.13;8.93;;;;;;;10.12;66.87;97241.69;5007211;28;20465;-70
2023/10/06 04:24:34;;;;;;;13.73;8.80;;;;;;;10.04;66.93;97241.91;5007148;28;20794;-70
2023/10/06 04:27:00;;;;;;;13.17;8.83;;;;;;;9.62;68.27;97238.69;5007041;28;20403;-70
2023/10/06 04:29:25;;;;;;;10.77;8.50;;;;;;;9.63;67.89;97237.78;5010672;28;20465;-71
2023/10/06 04:31:51;;;;;;;13.57;9.20;;;;;;;9.48;68.14;97239.06;5011356;28;20164;-68
2023/10/06 04:34:27;;;;;;;12.53;9.30;;;;;;;9.62;67.70;97230.84;5011406;28;20179;-70
2023/10/06 04:36:56;;;;;;;11.53;8.33;;;;;;;9.48;68.85;97236.44;5011065;28;20179;-69
2023/10/06 04:39:23;;;;;;;20.80;9.40;;;;;;;9.40;69.18;97230.53;5010516;28;20418;-68
2023/10/06 04:41:49;;;;;;;13.37;8.50;;;;;;;9.66;67.83;97221.97;5011161;28;20512;-70
2023/10/06 04:44:14;;;;;;;11.73;8.93;;;;;;;9.67;67.38;97223.69;5010881;28;20415;-69
2023/10/06 04:46:39;;;;;;;15.80;9.17;;;;;;;9.65;67.67;97222.88;5010769;28;20639;-70
2023/10/06 04:49:07;;;;;;;12.77;9.10;;;;;;;9.65;67.57;97215.03;5010461;28;20176;-69
2023/10/06 04:51:34;;;;;;;9.63;8.10;;;;;;;9.68;67.62;97213.16;5010712;28;20481;-69
2023/10/06 04:53:59;;;;;;;16.20;8.63;;;;;;;9.75;67.00;97214.72;5010105;28;20415;-69
2023/10/06 04:56:32;;;;;;;16.40;9.10;;;;;;;9.72;67.53;97222.66;5010684;28;20421;-69
2023/10/06 04:58:57;;;;;;;8.73;7.50;;;;;;;9.41;68.79;97227.88;5010047;28;20730;-70
2023/10/06 05:01:23;;;;;;;12.53;7.77;;;;;;;9.29;69.37;97228.19;5010571;28;20576;-69
2023/10/06 05:03:48;;;;;;;10.40;8.27;;;;;;;9.37;68.79;97228.84;5010660;28;20198;-70
2023/10/06 05:06:16;;;;;;;16.30;10.40;;;;;;;9.67;68.45;97224.56;5011769;28;20168;-68
2023/10/06 05:08:46;;;;;;;21.93;8.40;;;;;;;9.29;70.11;97231.66;5010693;28;20181;-71
2023/10/06 05:11:16;;;;;;;22.27;12.13;;;;;;;9.53;68.61;97224.91;5010477;28;20451;-69
2023/10/06 05:13:42;;;;;;;32.83;9.70;;;;;;;9.34;70.10;97223.69;5010760;28;20414;-69
2023/10/06 05:16:11;;;;;;;20.47;8.87;;;;;;;9.28;69.73;97224.72;5010466;28;20409;-69
2023/10/06 05:18:38;;;;;;;39.27;8.87;;;;;;;9.46;69.55;97230.38;5009963;28;20421;-69
2023/10/06 05:21:03;;;;;;;13.20;8.57;;;;;;;9.29;69.64;97230.81;5009954;28;20541;-71
2023/10/06 05:23:29;;;;;;;41.07;25.30;;;;;;;9.44;69.18;97227.78;5010787;28;20977;-70
2023/10/06 05:26:02;;;;;;;24.63;10.50;;;;;;;9.65;68.49;97220.25;5010967;28;20169;-69
2023/10/06 05:28:27;;;;;;;42.53;31.53;;;;;;;9.36;69.35;97231.53;5010819;28;20675;-70
2023/10/06 05:30:52;;;;;;;29.57;18.27;;;;;;;9.27;69.85;97229.97;5010883;28;20430;-70
2023/10/06 05:33:18;;;;;;;66.53;34.97;;;;;;;9.17;69.62;97226.75;5010993;28;20184;-71
2023/10/06 05:35:46;;;;;;;100.00;45.30;;;;;;;9.29;68.70;97223.81;5010722;28;20172;-69
2023/10/06 05:38:13;;;;;;;36.20;20.90;;;;;;;9.39;68.85;97224.44;5009737;28;20192;-69
2023/10/06 05:40:44;;;;;;;34.00;17.90;;;;;;;9.23;69.71;97223.09;5009944;28;20459;-68
2023/10/06 05:43:15;;;;;;;36.07;19.60;;;;;;;9.28;69.56;97224.72;5010562;28;20400;-71
2023/10/06 05:46:03;;;;;;;48.20;18.83;;;;;;;9.35;69.21;97224.53;5010287;28;20496;-69
2023/10/06 05:48:30;;;;;;;38.93;21.50;;;;;;;9.49;68.52;97231.13;5009795;28;20444;-72
2023/10/06 05:51:05;;;;;;;41.67;20.43;;;;;;;9.22;69.44;97244.97;5010861;28;20585;-70
2023/10/06 05:53:38;;;;;;;66.47;24.10;;;;;;;9.27;69.57;97250.94;5011604;28;20945;-70
2023/10/06 05:56:06;;;;;;;29.57;19.40;;;;;;;9.32;69.03;97243.81;5010176;28;20407;-70
2023/10/06 05:58:34;;;;;;;23.87;15.03;;;;;;;9.23;69.58;97244.91;5008930;28;20494;-70
2023/10/06 06:01:18;;;;;;;28.10;15.60;;;;;;;9.48;68.83;97245.16;5009035;28;20563;-70
2023/10/06 06:03:47;;;;;;;21.40;18.00;;;;;;;9.59;67.99;97255.38;5009083;28;20458;-69
2023/10/06 06:06:21;;;;;;;15.37;10.33;;;;;;;9.50;68.30;97258.22;5009237;28;20499;-69
2023/10/06 06:08:51;;;;;;;22.30;12.90;;;;;;;9.71;67.57;97252.41;5009060;28;20819;-69
2023/10/06 06:11:16;;;;;;;24.47;15.50;;;;;;;9.69;67.70;97261.22;5009043;28;20925;-68
2023/10/06 06:13:42;;;;;;;29.27;21.93;;;;;;;10.28;65.92;97260.47;5008879;28;20465;-69
2023/10/06 06:16:07;;;;;;;25.67;20.33;;;;;;;10.89;63.74;97268.28;5009116;28;20535;-69
2023/10/06 06:18:34;;;;;;;18.90;12.97;;;;;;;10.43;64.59;97272.31;5009002;28;20646;-71
2023/10/06 06:21:02;;;;;;;20.47;14.77;;;;;;;10.50;64.45;97277.31;5008848;28;20204;-69
2023/10/06 06:23:33;;;;;;;23.03;13.07;;;;;;;11.15;62.83;97272.69;5008806;28;20426;-69
2023/10/06 06:25:59;;;;;;;21.60;13.20;;;;;;;12.11;59.47;97270.38;5008843;28;20473;-70
2023/10/06 06:28:25;;;;;;;19.10;15.60;;;;;;;12.58;57.14;97270.38;5008138;28;20435;-69
2023/10/06 06:30:51;;;;;;;20.07;13.17;;;;;;;12.70;56.72;97272.53;5008097;28;20439;-68
2023/10/06 06:33:22;;;;;;;15.90;11.80;;;;;;;13.51;54.58;97273.72;5008550;28;20415;-68
2023/10/06 06:35:48;;;;;;;26.03;12.07;;;;;;;14.56;52.02;97276.22;5008392;28;20172;-70
2023/10/06 06:38:13;;;;;;;36.93;20.30;;;;;;;14.34;52.24;97272.81;5008583;28;21117;-68
2023/10/06 06:40:39;;;;;;;25.73;17.37;;;;;;;14.95;50.09;97271.78;5007879;28;20618;-70
2023/10/06 06:43:09;;;;;;;29.30;23.90;;;;;;;14.42;51.69;97275.94;5008109;28;20167;-69
2023/10/06 06:45:39;;;;;;;27.90;19.93;;;;;;;13.87;53.41;97276.59;5008390;28;20172;-70
2023/10/06 06:48:12;;;;;;;42.47;32.47;;;;;;;13.47;54.62;97282.72;5007979;28;20439;-69
2023/10/06 06:50:39;;;;;;;78.93;59.57;;;;;;;13.84;53.74;97279.38;5006888;28;20502;-70
2023/10/06 06:53:05;;;;;;;33.17;25.20;;;;;;;14.64;51.84;97285.56;5008181;28;20420;-70
2023/10/06 06:55:30;;;;;;;59.77;30.80;;;;;;;15.09;50.84;97284.34;5008005;28;20415;-70
2023/10/06 06:57:57;;;;;;;28.10;17.10;;;;;;;15.44;49.95;97280.84;5008310;28;20200;-69
2023/10/06 07:00:23;;;;;;;29.50;21.20;;;;;;;15.20;50.08;97280.25;5007599;28;20549;-69
2023/10/06 07:02:50;;;;;;;29.80;18.17;;;;;;;14.93;50.96;97289.47;5008115;28;20852;-69
2023/10/06 07:05:18;;;;;;;25.50;14.63;;;;;;;16.59;46.47;97281.19;5008304;28;20496;-69
2023/10/06 07:07:45;;;;;;;26.47;16.97;;;;;;;17.20;44.99;97272.53;5008346;28;20474;-69
2023/10/06 07:10:15;;;;;;;26.10;17.03;;;;;;;18.03;43.00;97264.22;5007768;28;20534;-68
2023/10/06 07:12:44;;;;;;;25.20;15.90;;;;;;;16.67;46.33;97269.22;5008570;28;21237;-70
2023/10/06 07:15:17;;;;;;;26.47;14.50;;;;;;;16.60;46.22;97267.84;5008031;28;20434;-71
2023/10/06 07:17:48;;;;;;;28.83;17.50;;;;;;;17.07;45.10;97259.09;5008017;28;20403;-70
2023/10/06 07:20:26;;;;;;;33.17;16.27;;;;;;;17.68;43.79;97260.00;5007606;28;20459;-69
2023/10/06 07:22:55;;;;;;;24.30;16.30;;;;;;;17.93;43.59;97251.50;5008151;28;20419;-70
2023/10/06 07:25:24;;;;;;;25.23;17.43;;;;;;;17.71;44.07;97257.16;5009348;28;20997;-68
2023/10/06 07:27:50;;;;;;;25.00;16.90;;;;;;;17.04;44.86;97246.00;5008542;28;20418;-69
2023/10/06 07:30:16;;;;;;;30.23;17.23;;;;;;;16.99;45.34;97249.88;5007607;28;20433;-70
2023/10/06 07:32:43;;;;;;;34.10;19.10;;;;;;;17.53;44.36;97251.16;5008747;28;20985;-70
2023/10/06 07:35:14;;;;;;;31.33;19.93;;;;;;;17.59;44.15;97260.56;5007775;28;20203;-69
2023/10/06 07:37:44;;;;;;;30.53;23.30;;;;;;;17.64;44.02;97257.63;5008331;28;20407;-70
2023/10/06 07:40:13;;;;;;;32.67;21.53;;;;;;;17.49;44.66;97254.06;5007792;28;20434;-70
2023/10/06 07:42:46;;;;;;;30.80;22.20;;;;;;;17.37;45.17;97263.59;5008016;28;20469;-69
2023/10/06 07:45:12;;;;;;;27.93;19.40;;;;;;;17.04;46.05;97267.22;5007967;28;20782;-69
2023/10/06 07:47:39;;;;;;;30.67;20.00;;;;;;;16.35;48.00;97264.81;5007804;28;20783;-69
2023/10/06 07:50:07;;;;;;;29.30;19.30;;;;;;;17.35;45.94;97263.69;5006794;28;20518;-69
2023/10/06 07:52:33;;;;;;;37.67;20.20;;;;;;;18.05;44.08;97259.66;5007131;28;20498;-70
2023/10/06 07:54:59;;;;;;;40.77;22.20;;;;;;;16.84;46.73;97264.81;5007210;28;20771;-69
2023/10/06 07:57:31;;;;;;;41.87;20.30;;;;;;;17.61;45.63;97258.66;5007119;28;20419;-71
2023/10/06 07:59:59;;;;;;;38.77;22.83;;;;;;;17.28;46.29;97258.81;5006717;28;20426;-70
2023/10/06 08:02:24;;;;;;;37.37;23.20;;;;;;;16.67;47.87;97266.56;5007073;28;20443;-70
2023/10/06 08:04:51;;;;;;;27.67;21.20;;;;;;;16.32;49.37;97262.31;5006984;28;20439;-69
2023/10/06 08:07:16;;;;;;;25.47;19.23;;;;;;;16.08;49.06;97271.44;5007170;28;20176;-68
2023/10/06 08:09:41;;;;;;;31.07;18.13;;;;;;;16.00;50.39;97272.81;5006509;28;20513;-68
2023/10/06 08:12:08;;;;;;;37.73;17.53;;;;;;;16.99;48.29;97265.78;5007002;28;20527;-72
2023/10/06 08:14:34;;;;;;;34.67;20.23;;;;;;;16.70;48.58;97268.19;5006994;28;20567;-72
2023/10/06 08:16:59;;;;;;;20.83;16.07;;;;;;;15.52;51.03;97269.00;5006949;28;20442;-70
2023/10/06 08:19:26;;;;;;;33.33;18.43;;;;;;;15.96;50.99;97274.75;5006560;28;21156;-68
2023/10/06 08:21:51;;;;;;;27.47;17.40;;;;;;;15.43;52.76;97276.50;5007091;28;20764;-69
2023/10/06 08:24:17;;;;;;;28.60;21.73;;;;;;;15.41;52.52;97269.56;5007278;28;20454;-70
2023/10/06 08:26:42;;;;;;;36.67;26.83;;;;;;;16.45;50.63;97269.53;5006871;28;20202;-69
2023/10/06 08:29:08;;;;;;;29.90;27.00;;;;;;;16.45;50.02;97266.03;5006780;28;20650;-69
2023/10/06 08:31:33;;;;;;;36.27;32.33;;;;;;;16.62;50.41;97265.97;5007094;28;20203;-70
2023/10/06 08:34:01;;;;;;;37.00;32.90;;;;;;;16.80;49.71;97263.28;5007128;28;20256;-69
2023/10/06 08:36:26;;;;;;;48.13;38.90;;;;;;;16.51;50.60;97260.38;5006946;28;20230;-70
2023/10/06 08:38:53;;;;;;;45.07;38.57;;;;;;;16.19;51.69;97268.25;5006699;28;20416;-70
2023/10/06 08:41:29;;;;;;;43.00;34.70;;;;;;;16.20;51.52;97264.66;5006724;28;20250;-69
2023/10/06 08:43:58;;;;;;;43.10;33.47;;;;;;;15.49;54.29;97266.53;5006846;28;21077;-70
2023/10/06 08:46:24;;;;;;;50.30;37.30;;;;;;;15.56;53.16;97262.66;5007153;28;20426;-69
2023/10/06 08:48:50;;;;;;;47.47;37.00;;;;;;;15.52;54.28;97264.59;5006536;28;20411;-71
2023/10/06 08:51:19;;;;;;;52.67;40.90;;;;;;;16.36;51.85;97261.22;5006832;28;21170;-69
2023/10/06 08:53:46;;;;;;;59.73;37.10;;;;;;;16.26;52.09;97268.78;5006723;28;20411;-67
2023/10/06 08:56:14;;;;;;;42.97;36.00;;;;;;;15.82;53.85;97266.66;5006448;28;20481;-69
2023/10/06 08:58:41;;;;;;;28.10;25.00;;;;;;;15.95;52.88;97264.25;5006198;28;20417;-69
2023/10/06 09:01:08;;;;;;;18.73;15.90;;;;;;;16.11;53.36;97254.56;5006345;28;20554;-69
2023/10/06 09:03:38;;;;;;;28.57;16.90;;;;;;;16.53;51.66;97258.50;5006062;28;20922;-69
2023/10/06 09:06:06;;;;;;;25.30;15.90;;;;;;;17.40;50.09;97252.81;5006543;28;21229;-69
2023/10/06 09:08:42;;;;;;;19.17;16.47;;;;;;;16.78;51.83;97265.13;5006287;28;20545;-67
2023/10/06 09:11:09;;;;;;;17.50;15.37;;;;;;;17.05;51.04;97252.16;5006765;28;20442;-68
2023/10/06 09:13:36;;;;;;;18.07;13.60;;;;;;;17.83;48.62;97246.81;5007587;28;20446;-68
2023/10/06 09:16:03;;;;;;;22.30;17.43;;;;;;;17.97;48.34;97239.72;5010409;28;20498;-69
2023/10/06 09:18:29;;;;;;;19.27;15.93;;;;;;;18.21;48.36;97239.19;5009444;28;20410;-69
2023/10/06 09:21:09;;;;;;;15.37;13.77;;;;;;;18.69;47.13;97233.59;5009876;28;20451;-69
2023/10/06 09:23:37;;;;;;;16.30;14.30;;;;;;;16.52;51.73;97239.09;5010028;28;20410;-70
2023/10/06 09:26:04;;;;;;;16.33;14.63;;;;;;;18.05;48.74;97230.44;5010116;28;20909;-69
2023/10/06 09:28:33;;;;;;;26.33;15.70;;;;;;;17.93;48.17;97237.38;5009365;28;20967;-69
2023/10/06 09:31:01;;;;;;;25.57;18.33;;;;;;;17.05;51.14;97242.41;5009598;28;20426;-69
2023/10/06 09:33:48;;;;;;;30.87;18.03;;;;;;;18.11;48.70;97236.22;5009383;28;20756;-69
2023/10/06 09:36:17;;;;;;;48.07;20.30;;;;;;;17.20;50.88;97238.03;5009902;28;20827;-69
2023/10/06 09:38:46;;;;;;;18.60;14.73;;;;;;;16.49;53.11;97238.44;5008956;28;20411;-69
2023/10/06 09:41:13;;;;;;;21.17;16.20;;;;;;;17.21;51.31;97242.38;5009419;28;20458;-69
2023/10/06 09:43:39;;;;;;;22.50;16.33;;;;;;;17.76;49.82;97233.00;5009254;28;20407;-69
2023/10/06 09:46:07;;;;;;;29.10;20.17;;;;;;;17.21;51.07;97233.59;5009232;28;20502;-68
2023/10/06 09:48:36;;;;;;;22.33;15.47;;;;;;;17.30;51.39;97230.41;5008827;28;20419;-68
2023/10/06 09:51:08;;;;;;;17.10;14.70;;;;;;;18.17;49.08;97227.91;5009252;28;20805;-68
2023/10/06 09:53:38;;;;;;;22.33;15.70;;;;;;;17.46;50.91;97236.53;5009218;28;20422;-68
2023/10/06 09:56:09;;;;;;;20.10;14.57;;;;;;;18.45;48.82;97227.97;5009277;28;20960;-69
2023/10/06 09:58:38;;;;;;;30.43;16.03;;;;;;;18.21;48.29;97220.59;5008981;28;20423;-69
2023/10/06 10:01:04;;;;;;;16.93;14.43;;;;;;;17.65;50.43;97222.19;5009023;28;21235;-69
2023/10/06 10:03:34;;;;;;;23.23;15.30;;;;;;;17.90;49.84;97218.94;5008857;28;20492;-70
2023/10/06 10:06:04;;;;;;;21.57;16.37;;;;;;;17.49;50.48;97225.75;5009148;28;20415;-69
2023/10/06 10:08:32;;;;;;;22.27;13.83;;;;;;;18.34;49.02;97226.84;5008670;28;20404;-69
2023/10/06 10:11:28;;;;;;;22.93;16.37;;;;;;;18.26;49.37;97213.22;5009374;28;20533;-70
2023/10/06 10:14:40;;;;;;;50.40;21.90;;;;;;;18.42;49.26;97215.75;5000171;28;20419;-69
2023/10/06 10:17:18;;;;;;;16.17;13.93;;;;;;;18.60;48.82;97211.94;5009649;28;20412;-69
2023/10/06 10:19:46;;;;;;;16.70;14.00;;;;;;;17.73;50.48;97214.63;5009394;28;20435;-69
2023/10/06 10:22:13;;;;;;;51.60;18.80;;;;;;;18.32;49.61;97212.81;5009551;28;20481;-70
2023/10/06 10:24:39;;;;;;;25.93;18.90;;;;;;;18.13;50.10;97209.59;5009082;28;20419;-69
2023/10/06 10:27:22;;;;;;;17.23;13.20;;;;;;;18.13;49.97;97205.13;5009096;28;20403;-69
2023/10/06 10:29:49;;;;;;;16.03;14.30;;;;;;;17.41;51.83;97206.78;5008610;28;20489;-69
2023/10/06 10:32:17;;;;;;;21.20;15.00;;;;;;;17.28;53.42;97205.75;5008840;28;20906;-70
2023/10/06 10:35:13;;;;;;;24.67;17.47;;;;;;;17.32;53.13;97208.16;5008896;28;20411;-68
2023/10/06 10:38:02;;;;;;;20.20;16.23;;;;;;;17.56;52.85;97200.53;4982477;28;20782;-69
2023/10/06 10:40:46;;;;;;;24.30;15.80;;;;;;;17.67;52.49;97202.56;5008651;28;20530;-70
2023/10/06 10:43:14;;;;;;;21.70;17.37;;;;;;;17.96;52.25;97198.19;5008192;28;20403;-69
2023/10/06 10:45:44;;;;;;;18.03;14.57;;;;;;;18.55;50.56;97194.59;5007894;28;20485;-69
2023/10/06 10:48:14;;;;;;;18.57;15.30;;;;;;;18.75;50.39;97190.63;5008057;28;20411;-69
2023/10/06 10:50:58;;;;;;;23.70;16.90;;;;;;;18.79;49.59;97190.38;5007794;28;20451;-69
2023/10/06 10:53:28;;;;;;;18.33;16.43;;;;;;;18.73;50.05;97180.13;5008951;28;20415;-69
2023/10/06 10:55:53;;;;;;;17.90;15.70;;;;;;;18.91;49.68;97179.91;5008189;28;20419;-69
2023/10/06 10:58:49;;;;;;;18.00;15.30;;;;;;;18.55;51.14;97168.84;5008562;28;20408;-69
2023/10/06 11:01:22;;;;;;;16.30;14.60;;;;;;;18.54;51.94;97174.25;5007927;28;20193;-69
2023/10/06 11:04:29;;;;;;;20.10;16.43;;;;;;;19.09;50.56;97162.75;5007975;28;20446;-69
2023/10/06 11:06:58;;;;;;;19.23;14.40;;;;;;;19.04;50.63;97162.22;5008779;28;20993;-69
2023/10/06 11:09:26;;;;;;;16.27;12.80;;;;;;;19.33;49.81;97156.75;5007944;28;20403;-69
2023/10/06 11:12:00;;;;;;;17.87;14.47;;;;;;;19.55;49.60;97148.16;5007951;28;20407;-69
2023/10/06 11:14:27;;;;;;;16.60;13.50;;;;;;;19.18;50.63;97146.19;5008144;28;20460;-68
2023/10/06 11:16:59;;;;;;;16.17;12.93;;;;;;;19.54;49.79;97136.66;5007780;28;20414;-68
2023/10/06 11:19:24;;;;;;;15.07;13.37;;;;;;;19.38;49.90;97136.84;5007654;28;20481;-68
2023/10/06 11:21:52;;;;;;;18.37;13.07;;;;;;;19.30;50.17;97128.53;5007710;28;20447;-68
2023/10/06 11:24:25;;;;;;;17.60;12.00;;;;;;;19.79;49.19;97130.50;5007794;28;20266;-69
2023/10/06 11:26:51;;;;;;;13.67;11.87;;;;;;;19.93;48.68;97129.56;5007696;28;20450;-69
2023/10/06 11:29:35;;;;;;;14.10;11.97;;;;;;;20.11;48.21;97122.09;5007608;28;20423;-71
2023/10/06 11:32:07;;;;;;;17.63;11.33;;;;;;;20.35;47.74;97124.81;5012614;28;20172;-73
2023/10/06 11:34:33;;;;;;;14.73;12.83;;;;;;;19.56;49.38;97113.47;5007953;28;20791;-70
2023/10/06 11:36:58;;;;;;;19.03;13.93;;;;;;;19.74;49.11;97106.03;5007097;28;20415;-70
2023/10/06 11:39:29;;;;;;;21.13;12.60;;;;;;;19.42;49.92;97111.72;5007343;28;20183;-69
2023/10/06 11:42:23;;;;;;;18.50;13.00;;;;;;;19.40;49.76;97104.81;5007502;28;20208;-69
2023/10/06 11:44:52;;;;;;;16.03;12.87;;;;;;;19.25;50.55;97093.38;5007468;28;20426;-70